sensor_id;sensor_type;location;lat;lon;timestamp;pressure;altitude;pressure_sealevel;temperature;humidity
25238;BME280;13185;50.872;5.306;2022-07-06T00:00:00;102253.59;;;14.31;73.67
25238;BME280;13185;50.872;5.306;2022-07-06T00:02:25;102253.06;;;14.24;73.97
25238;BME280;13185;50.872;5.306;2022-07-06T00:04:51;102256.84;;;14.22;73.99
25238;BME280;13185;50.872;5.306;2022-07-06T00:07:16;102256.22;;;14.16;74.57
25238;BME280;13185;50.872;5.306;2022-07-06T00:09:42;102269.88;;;14.13;74.51
25238;BME280;13185;50.872;5.306;2022-07-06T00:12:08;102272.00;;;14.08;74.44
25238;BME280;13185;50.872;5.306;2022-07-06T00:14:34;102274.94;;;14.04;74.77
25238;BME280;13185;50.872;5.306;2022-07-06T00:17:00;102274.34;;;13.99;75.13
25238;BME280;13185;50.872;5.306;2022-07-06T00:19:25;102272.75;;;13.95;75.46
25238;BME280;13185;50.872;5.306;2022-07-06T00:21:51;102271.09;;;13.92;75.61
25238;BME280;13185;50.872;5.306;2022-07-06T00:24:16;102268.69;;;13.88;75.87
25238;BME280;13185;50.872;5.306;2022-07-06T00:26:44;102272.34;;;13.86;75.88
25238;BME280;13185;50.872;5.306;2022-07-06T00:29:10;102262.47;;;13.85;75.87
25238;BME280;13185;50.872;5.306;2022-07-06T00:31:35;102255.53;;;13.81;76.40
25238;BME280;13185;50.872;5.306;2022-07-06T00:34:01;102259.47;;;13.76;76.53
25238;BME280;13185;50.872;5.306;2022-07-06T00:36:26;102260.38;;;13.75;76.50
25238;BME280;13185;50.872;5.306;2022-07-06T00:38:53;102253.53;;;13.69;76.71
25238;BME280;13185;50.872;5.306;2022-07-06T00:41:18;102259.09;;;13.66;76.98
25238;BME280;13185;50.872;5.306;2022-07-06T00:43:51;102256.47;;;13.65;77.00
25238;BME280;13185;50.872;5.306;2022-07-06T00:46:18;102248.66;;;13.60;77.00
25238;BME280;13185;50.872;5.306;2022-07-06T00:48:44;102261.44;;;13.56;77.15
25238;BME280;13185;50.872;5.306;2022-07-06T00:51:10;102259.06;;;13.50;77.47
25238;BME280;13185;50.872;5.306;2022-07-06T00:53:36;102265.41;;;13.49;77.60
25238;BME280;13185;50.872;5.306;2022-07-06T00:56:02;102259.34;;;13.46;77.77
25238;BME280;13185;50.872;5.306;2022-07-06T00:58:28;102265.72;;;13.43;77.88
25238;BME280;13185;50.872;5.306;2022-07-06T01:00:53;102262.16;;;13.43;77.88
25238;BME280;13185;50.872;5.306;2022-07-06T01:03:19;102257.72;;;13.42;78.31
25238;BME280;13185;50.872;5.306;2022-07-06T01:05:44;102257.03;;;13.38;78.43
25238;BME280;13185;50.872;5.306;2022-07-06T01:08:10;102250.88;;;13.36;78.59
25238;BME280;13185;50.872;5.306;2022-07-06T01:10:37;102249.38;;;13.31;78.65
25238;BME280;13185;50.872;5.306;2022-07-06T01:13:03;102254.94;;;13.27;78.92
25238;BME280;13185;50.872;5.306;2022-07-06T01:15:28;102256.84;;;13.25;78.86
25238;BME280;13185;50.872;5.306;2022-07-06T01:17:54;102251.69;;;13.21;78.52
25238;BME280;13185;50.872;5.306;2022-07-06T01:20:25;102250.00;;;13.18;78.46
25238;BME280;13185;50.872;5.306;2022-07-06T01:22:53;102256.34;;;13.17;78.37
25238;BME280;13185;50.872;5.306;2022-07-06T01:25:20;102249.31;;;13.15;78.47
25238;BME280;13185;50.872;5.306;2022-07-06T01:27:46;102252.13;;;13.12;78.71
25238;BME280;13185;50.872;5.306;2022-07-06T01:30:17;102253.19;;;13.09;78.53
25238;BME280;13185;50.872;5.306;2022-07-06T01:32:43;102255.09;;;13.07;78.57
25238;BME280;13185;50.872;5.306;2022-07-06T01:35:14;102248.06;;;13.05;78.53
25238;BME280;13185;50.872;5.306;2022-07-06T01:37:42;102249.06;;;13.02;78.67
25238;BME280;13185;50.872;5.306;2022-07-06T01:40:09;102242.97;;;12.98;79.01
25238;BME280;13185;50.872;5.306;2022-07-06T01:42:35;102246.88;;;12.93;79.32
25238;BME280;13185;50.872;5.306;2022-07-06T01:45:02;102249.72;;;12.90;79.61
25238;BME280;13185;50.872;5.306;2022-07-06T01:47:28;102251.72;;;12.86;79.96
25238;BME280;13185;50.872;5.306;2022-07-06T01:49:54;102249.19;;;12.83;80.20
25238;BME280;13185;50.872;5.306;2022-07-06T01:52:21;102247.59;;;12.79;79.84
25238;BME280;13185;50.872;5.306;2022-07-06T01:54:46;102255.84;;;12.76;79.90
25238;BME280;13185;50.872;5.306;2022-07-06T01:57:12;102252.44;;;12.73;79.83
25238;BME280;13185;50.872;5.306;2022-07-06T01:59:38;102254.41;;;12.69;79.85
25238;BME280;13185;50.872;5.306;2022-07-06T02:02:04;102252.75;;;12.66;80.32
25238;BME280;13185;50.872;5.306;2022-07-06T02:04:30;102247.66;;;12.60;80.71
25238;BME280;13185;50.872;5.306;2022-07-06T02:06:55;102246.88;;;12.58;80.85
25238;BME280;13185;50.872;5.306;2022-07-06T02:09:21;102251.38;;;12.58;80.50
25238;BME280;13185;50.872;5.306;2022-07-06T02:11:46;102244.34;;;12.55;80.86
25238;BME280;13185;50.872;5.306;2022-07-06T02:14:14;102247.41;;;12.48;81.73
25238;BME280;13185;50.872;5.306;2022-07-06T02:16:40;102241.25;;;12.46;81.85
25238;BME280;13185;50.872;5.306;2022-07-06T02:19:05;102232.38;;;12.43;81.72
25238;BME280;13185;50.872;5.306;2022-07-06T02:21:31;102234.34;;;12.40;81.63
25238;BME280;13185;50.872;5.306;2022-07-06T02:23:57;102235.53;;;12.34;81.84
25238;BME280;13185;50.872;5.306;2022-07-06T02:26:22;102231.31;;;12.29;82.41
25238;BME280;13185;50.872;5.306;2022-07-06T02:28:49;102232.44;;;12.25;82.79
25238;BME280;13185;50.872;5.306;2022-07-06T02:31:15;102227.44;;;12.17;82.15
25238;BME280;13185;50.872;5.306;2022-07-06T02:33:42;102232.91;;;12.16;82.63
25238;BME280;13185;50.872;5.306;2022-07-06T02:36:09;102230.38;;;12.12;83.17
25238;BME280;13185;50.872;5.306;2022-07-06T02:38:35;102231.41;;;12.10;83.34
25238;BME280;13185;50.872;5.306;2022-07-06T02:41:00;102230.56;;;12.08;83.10
25238;BME280;13185;50.872;5.306;2022-07-06T02:43:26;102235.09;;;12.07;82.66
25238;BME280;13185;50.872;5.306;2022-07-06T02:45:51;102228.06;;;12.05;82.56
25238;BME280;13185;50.872;5.306;2022-07-06T02:48:18;102227.41;;;12.00;82.83
25238;BME280;13185;50.872;5.306;2022-07-06T02:50:47;102241.94;;;11.96;82.72
25238;BME280;13185;50.872;5.306;2022-07-06T02:53:14;102231.25;;;11.94;82.53
25238;BME280;13185;50.872;5.306;2022-07-06T02:55:39;102235.84;;;11.92;82.43
25238;BME280;13185;50.872;5.306;2022-07-06T02:58:05;102236.97;;;11.88;82.50
25238;BME280;13185;50.872;5.306;2022-07-06T03:00:31;102238.19;;;11.81;82.55
25238;BME280;13185;50.872;5.306;2022-07-06T03:02:56;102243.09;;;11.71;83.07
25238;BME280;13185;50.872;5.306;2022-07-06T03:05:22;102243.09;;;11.71;83.09
25238;BME280;13185;50.872;5.306;2022-07-06T03:07:48;102240.50;;;11.70;82.96
25238;BME280;13185;50.872;5.306;2022-07-06T03:10:14;102236.84;;;11.71;82.37
25238;BME280;13185;50.872;5.306;2022-07-06T03:12:40;102246.81;;;11.69;82.60
25238;BME280;13185;50.872;5.306;2022-07-06T03:15:06;102242.38;;;11.68;82.63
25238;BME280;13185;50.872;5.306;2022-07-06T03:17:35;102247.88;;;11.65;82.85
25238;BME280;13185;50.872;5.306;2022-07-06T03:20:02;102241.63;;;11.64;82.82
25238;BME280;13185;50.872;5.306;2022-07-06T03:22:28;102246.38;;;11.59;83.06
25238;BME280;13185;50.872;5.306;2022-07-06T03:24:54;102251.00;;;11.55;83.58
25238;BME280;13185;50.872;5.306;2022-07-06T03:27:20;102237.72;;;11.52;83.33
25238;BME280;13185;50.872;5.306;2022-07-06T03:29:45;102238.81;;;11.48;82.91
25238;BME280;13185;50.872;5.306;2022-07-06T03:32:11;102244.38;;;11.44;83.24
25238;BME280;13185;50.872;5.306;2022-07-06T03:34:36;102247.16;;;11.42;83.23
25238;BME280;13185;50.872;5.306;2022-07-06T03:37:03;102251.72;;;11.40;83.34
25238;BME280;13185;50.872;5.306;2022-07-06T03:39:28;102250.06;;;11.38;83.58
25238;BME280;13185;50.872;5.306;2022-07-06T03:41:56;102261.00;;;11.33;84.11
25238;BME280;13185;50.872;5.306;2022-07-06T03:44:21;102255.78;;;11.30;84.07
25238;BME280;13185;50.872;5.306;2022-07-06T03:46:47;102261.28;;;11.27;84.25
25238;BME280;13185;50.872;5.306;2022-07-06T03:49:13;102256.88;;;11.26;84.45
25238;BME280;13185;50.872;5.306;2022-07-06T03:51:38;102264.84;;;11.27;84.69
25238;BME280;13185;50.872;5.306;2022-07-06T03:54:05;102265.78;;;11.26;84.79
25238;BME280;13185;50.872;5.306;2022-07-06T03:56:31;102262.16;;;11.27;84.73
25238;BME280;13185;50.872;5.306;2022-07-06T03:59:05;102264.84;;;11.27;84.83
25238;BME280;13185;50.872;5.306;2022-07-06T04:01:35;102269.19;;;11.30;84.97
25238;BME280;13185;50.872;5.306;2022-07-06T04:04:00;102264.78;;;11.29;84.95
25238;BME280;13185;50.872;5.306;2022-07-06T04:06:26;102265.84;;;11.25;85.36
25238;BME280;13185;50.872;5.306;2022-07-06T04:08:52;102263.16;;;11.25;85.95
25238;BME280;13185;50.872;5.306;2022-07-06T04:11:18;102265.72;;;11.28;86.29
25238;BME280;13185;50.872;5.306;2022-07-06T04:13:43;102267.38;;;11.31;86.12
25238;BME280;13185;50.872;5.306;2022-07-06T04:16:09;102268.19;;;11.33;86.06
25238;BME280;13185;50.872;5.306;2022-07-06T04:18:35;102272.59;;;11.34;86.54
25238;BME280;13185;50.872;5.306;2022-07-06T04:21:01;102273.28;;;11.39;86.43
25238;BME280;13185;50.872;5.306;2022-07-06T04:23:30;102276.69;;;11.42;86.76
25238;BME280;13185;50.872;5.306;2022-07-06T04:25:56;102275.63;;;11.46;87.44
25238;BME280;13185;50.872;5.306;2022-07-06T04:28:23;102280.84;;;11.49;87.23
25238;BME280;13185;50.872;5.306;2022-07-06T04:30:49;102275.19;;;11.55;87.11
25238;BME280;13185;50.872;5.306;2022-07-06T04:33:17;102275.06;;;11.59;87.31
25238;BME280;13185;50.872;5.306;2022-07-06T04:35:44;102271.28;;;11.63;87.36
25238;BME280;13185;50.872;5.306;2022-07-06T04:38:10;102271.06;;;11.67;87.37
25238;BME280;13185;50.872;5.306;2022-07-06T04:40:35;102274.41;;;11.72;87.34
25238;BME280;13185;50.872;5.306;2022-07-06T04:43:05;102275.13;;;11.76;88.08
25238;BME280;13185;50.872;5.306;2022-07-06T04:45:32;102272.25;;;11.80;88.36
25238;BME280;13185;50.872;5.306;2022-07-06T04:47:59;102276.38;;;11.88;88.83
25238;BME280;13185;50.872;5.306;2022-07-06T04:50:25;102269.63;;;11.98;88.58
25238;BME280;13185;50.872;5.306;2022-07-06T04:52:52;102270.78;;;12.11;88.96
25238;BME280;13185;50.872;5.306;2022-07-06T04:55:18;102269.22;;;12.24;89.11
25238;BME280;13185;50.872;5.306;2022-07-06T04:57:45;102262.00;;;12.43;89.04
25238;BME280;13185;50.872;5.306;2022-07-06T05:00:12;102271.75;;;12.63;89.36
25238;BME280;13185;50.872;5.306;2022-07-06T05:02:38;102271.44;;;12.87;88.53
25238;BME280;13185;50.872;5.306;2022-07-06T05:05:04;102274.63;;;13.11;87.25
25238;BME280;13185;50.872;5.306;2022-07-06T05:07:30;102275.44;;;13.30;86.68
25238;BME280;13185;50.872;5.306;2022-07-06T05:09:58;102272.16;;;13.41;86.14
25238;BME280;13185;50.872;5.306;2022-07-06T05:12:24;102278.28;;;13.44;86.18
25238;BME280;13185;50.872;5.306;2022-07-06T05:14:50;102268.19;;;13.48;86.17
25238;BME280;13185;50.872;5.306;2022-07-06T05:17:15;102268.56;;;13.57;86.73
25238;BME280;13185;50.872;5.306;2022-07-06T05:19:41;102273.44;;;13.67;86.50
25238;BME280;13185;50.872;5.306;2022-07-06T05:22:07;102271.16;;;13.75;86.41
25238;BME280;13185;50.872;5.306;2022-07-06T05:24:34;102275.03;;;13.86;86.17
25238;BME280;13185;50.872;5.306;2022-07-06T05:26:59;102281.19;;;14.04;85.59
25238;BME280;13185;50.872;5.306;2022-07-06T05:29:25;102273.34;;;14.15;84.71
25238;BME280;13185;50.872;5.306;2022-07-06T05:31:51;102274.66;;;14.24;84.92
25238;BME280;13185;50.872;5.306;2022-07-06T05:34:17;102273.25;;;14.33;84.78
25238;BME280;13185;50.872;5.306;2022-07-06T05:36:43;102275.44;;;14.42;84.25
25238;BME280;13185;50.872;5.306;2022-07-06T05:39:10;102281.44;;;14.47;84.42
25238;BME280;13185;50.872;5.306;2022-07-06T05:41:35;102276.56;;;14.54;84.18
25238;BME280;13185;50.872;5.306;2022-07-06T05:44:01;102275.34;;;14.59;84.24
25238;BME280;13185;50.872;5.306;2022-07-06T05:46:27;102279.59;;;14.63;83.42
25238;BME280;13185;50.872;5.306;2022-07-06T05:48:53;102279.25;;;14.69;83.27
25238;BME280;13185;50.872;5.306;2022-07-06T05:51:37;102273.25;;;14.79;83.22
25238;BME280;13185;50.872;5.306;2022-07-06T05:54:03;102274.44;;;14.89;82.76
25238;BME280;13185;50.872;5.306;2022-07-06T05:56:28;102280.25;;;14.97;82.07
25238;BME280;13185;50.872;5.306;2022-07-06T05:58:54;102279.72;;;15.06;81.33
25238;BME280;13185;50.872;5.306;2022-07-06T06:01:20;102280.38;;;15.10;80.98
25238;BME280;13185;50.872;5.306;2022-07-06T06:03:54;102282.81;;;15.14;81.15
25238;BME280;13185;50.872;5.306;2022-07-06T06:06:19;102281.75;;;15.17;80.44
25238;BME280;13185;50.872;5.306;2022-07-06T06:08:45;102287.94;;;15.19;79.97
25238;BME280;13185;50.872;5.306;2022-07-06T06:11:11;102289.50;;;15.23;80.03
25238;BME280;13185;50.872;5.306;2022-07-06T06:13:38;102287.16;;;15.31;80.31
25238;BME280;13185;50.872;5.306;2022-07-06T06:16:04;102292.88;;;15.41;79.88
25238;BME280;13185;50.872;5.306;2022-07-06T06:18:29;102286.88;;;15.50;79.34
25238;BME280;13185;50.872;5.306;2022-07-06T06:20:55;102293.66;;;15.57;79.74
25238;BME280;13185;50.872;5.306;2022-07-06T06:23:20;102289.72;;;15.63;79.57
25238;BME280;13185;50.872;5.306;2022-07-06T06:25:46;102293.78;;;15.70;79.45
25238;BME280;13185;50.872;5.306;2022-07-06T06:28:14;102287.78;;;15.79;78.56
25238;BME280;13185;50.872;5.306;2022-07-06T06:30:39;102287.38;;;15.99;78.90
25238;BME280;13185;50.872;5.306;2022-07-06T06:33:16;102288.06;;;16.30;78.32
25238;BME280;13185;50.872;5.306;2022-07-06T06:35:49;102287.81;;;16.47;76.08
25238;BME280;13185;50.872;5.306;2022-07-06T06:38:16;102282.28;;;16.49;73.79
25238;BME280;13185;50.872;5.306;2022-07-06T06:40:42;102284.13;;;16.48;73.08
25238;BME280;13185;50.872;5.306;2022-07-06T06:43:08;102284.38;;;16.58;73.01
25238;BME280;13185;50.872;5.306;2022-07-06T06:45:41;102280.16;;;16.66;72.21
25238;BME280;13185;50.872;5.306;2022-07-06T06:48:06;102284.22;;;16.73;72.02
25238;BME280;13185;50.872;5.306;2022-07-06T06:50:32;102282.94;;;16.79;72.51
25238;BME280;13185;50.872;5.306;2022-07-06T06:52:57;102282.31;;;16.88;72.35
25238;BME280;13185;50.872;5.306;2022-07-06T06:55:23;102287.31;;;16.94;71.78
25238;BME280;13185;50.872;5.306;2022-07-06T06:57:48;102283.44;;;17.11;71.85
25238;BME280;13185;50.872;5.306;2022-07-06T07:00:14;102291.78;;;17.34;71.70
25238;BME280;13185;50.872;5.306;2022-07-06T07:02:40;102290.03;;;17.71;70.66
25238;BME280;13185;50.872;5.306;2022-07-06T07:05:06;102287.94;;;18.00;69.34
25238;BME280;13185;50.872;5.306;2022-07-06T07:07:32;102286.56;;;18.18;66.81
25238;BME280;13185;50.872;5.306;2022-07-06T07:09:58;102284.38;;;18.23;66.41
25238;BME280;13185;50.872;5.306;2022-07-06T07:12:23;102299.16;;;18.43;65.25
25238;BME280;13185;50.872;5.306;2022-07-06T07:14:49;102295.72;;;18.65;63.46
25238;BME280;13185;50.872;5.306;2022-07-06T07:17:14;102296.06;;;18.84;64.09
25238;BME280;13185;50.872;5.306;2022-07-06T07:19:40;102294.50;;;19.04;62.06
25238;BME280;13185;50.872;5.306;2022-07-06T07:22:06;102289.34;;;19.12;60.64
25238;BME280;13185;50.872;5.306;2022-07-06T07:24:31;102292.94;;;19.24;61.27
25238;BME280;13185;50.872;5.306;2022-07-06T07:26:57;102296.22;;;19.40;59.81
25238;BME280;13185;50.872;5.306;2022-07-06T07:29:22;102289.53;;;19.44;58.17
25238;BME280;13185;50.872;5.306;2022-07-06T07:31:48;102287.69;;;19.56;57.86
25238;BME280;13185;50.872;5.306;2022-07-06T07:34:14;102287.09;;;19.75;57.25
25238;BME280;13185;50.872;5.306;2022-07-06T07:36:39;102283.50;;;19.85;55.83
25238;BME280;13185;50.872;5.306;2022-07-06T07:39:05;102284.22;;;19.87;55.22
25238;BME280;13185;50.872;5.306;2022-07-06T07:41:30;102292.50;;;20.08;55.03
25238;BME280;13185;50.872;5.306;2022-07-06T07:43:56;102297.03;;;20.30;54.84
25238;BME280;13185;50.872;5.306;2022-07-06T07:46:24;102285.34;;;20.51;53.94
25238;BME280;13185;50.872;5.306;2022-07-06T07:48:51;102282.72;;;20.60;53.79
25238;BME280;13185;50.872;5.306;2022-07-06T07:51:21;102292.25;;;20.66;53.04
25238;BME280;13185;50.872;5.306;2022-07-06T07:53:50;102292.72;;;20.71;52.37
25238;BME280;13185;50.872;5.306;2022-07-06T07:56:17;102286.53;;;20.69;51.71
25238;BME280;13185;50.872;5.306;2022-07-06T07:58:48;102288.66;;;20.65;51.90
25238;BME280;13185;50.872;5.306;2022-07-06T08:01:18;102284.09;;;20.87;51.32
25238;BME280;13185;50.872;5.306;2022-07-06T08:03:45;102281.09;;;21.11;51.56
25238;BME280;13185;50.872;5.306;2022-07-06T08:06:10;102285.28;;;21.36;50.03
25238;BME280;13185;50.872;5.306;2022-07-06T08:08:36;102277.06;;;21.56;49.74
25238;BME280;13185;50.872;5.306;2022-07-06T08:11:02;102284.47;;;21.75;47.84
25238;BME280;13185;50.872;5.306;2022-07-06T08:13:28;102269.06;;;21.65;47.31
25238;BME280;13185;50.872;5.306;2022-07-06T08:15:54;102275.91;;;21.49;46.25
25238;BME280;13185;50.872;5.306;2022-07-06T08:18:20;102277.66;;;21.29;46.23
25238;BME280;13185;50.872;5.306;2022-07-06T08:20:46;102278.28;;;21.22;46.74
25238;BME280;13185;50.872;5.306;2022-07-06T08:23:11;102276.44;;;21.22;47.49
25238;BME280;13185;50.872;5.306;2022-07-06T08:25:37;102274.25;;;21.16;47.91
25238;BME280;13185;50.872;5.306;2022-07-06T08:28:03;102267.25;;;21.02;47.37
25238;BME280;13185;50.872;5.306;2022-07-06T08:30:29;102281.59;;;20.84;45.62
25238;BME280;13185;50.872;5.306;2022-07-06T08:32:57;102276.34;;;20.71;45.39
25238;BME280;13185;50.872;5.306;2022-07-06T08:35:25;102275.22;;;20.73;45.84
25238;BME280;13185;50.872;5.306;2022-07-06T08:37:53;102280.44;;;20.77;46.48
25238;BME280;13185;50.872;5.306;2022-07-06T08:40:23;102284.09;;;20.87;47.28
25238;BME280;13185;50.872;5.306;2022-07-06T08:42:53;102287.47;;;21.00;47.40
25238;BME280;13185;50.872;5.306;2022-07-06T08:45:22;102279.78;;;21.05;46.25
25238;BME280;13185;50.872;5.306;2022-07-06T08:47:50;102287.56;;;21.10;46.40
25238;BME280;13185;50.872;5.306;2022-07-06T08:50:15;102278.38;;;21.11;46.50
25238;BME280;13185;50.872;5.306;2022-07-06T08:52:41;102282.31;;;21.18;47.02
25238;BME280;13185;50.872;5.306;2022-07-06T08:55:11;102282.41;;;21.27;46.67
25238;BME280;13185;50.872;5.306;2022-07-06T08:57:37;102284.56;;;21.33;46.93
25238;BME280;13185;50.872;5.306;2022-07-06T09:00:10;102275.06;;;21.28;47.78
25238;BME280;13185;50.872;5.306;2022-07-06T09:02:36;102274.44;;;21.24;46.86
25238;BME280;13185;50.872;5.306;2022-07-06T09:05:03;102269.25;;;21.21;47.55
25238;BME280;13185;50.872;5.306;2022-07-06T09:07:29;102259.88;;;21.14;47.37
25238;BME280;13185;50.872;5.306;2022-07-06T09:09:55;102270.13;;;21.01;46.85
25238;BME280;13185;50.872;5.306;2022-07-06T09:12:26;102265.72;;;20.89;46.08
25238;BME280;13185;50.872;5.306;2022-07-06T09:14:54;102268.72;;;20.86;45.48
25238;BME280;13185;50.872;5.306;2022-07-06T09:17:20;102264.88;;;20.88;45.53
25238;BME280;13185;50.872;5.306;2022-07-06T09:19:45;102270.59;;;20.85;44.71
25238;BME280;13185;50.872;5.306;2022-07-06T09:22:31;102257.75;;;20.97;45.59
25238;BME280;13185;50.872;5.306;2022-07-06T09:25:07;102263.78;;;21.21;45.40
25238;BME280;13185;50.872;5.306;2022-07-06T09:27:46;102270.69;;;21.37;45.19
25238;BME280;13185;50.872;5.306;2022-07-06T09:30:13;102265.84;;;21.50;45.23
25238;BME280;13185;50.872;5.306;2022-07-06T09:32:43;102271.06;;;21.63;44.73
25238;BME280;13185;50.872;5.306;2022-07-06T09:35:29;102271.78;;;21.65;43.84
25238;BME280;13185;50.872;5.306;2022-07-06T09:40:32;102271.47;;;21.98;43.93
25238;BME280;13185;50.872;5.306;2022-07-06T09:43:11;102274.53;;;22.05;43.39
25238;BME280;13185;50.872;5.306;2022-07-06T09:45:38;102268.25;;;22.14;43.02
25238;BME280;13185;50.872;5.306;2022-07-06T09:48:06;102272.41;;;22.18;42.17
25238;BME280;13185;50.872;5.306;2022-07-06T09:50:40;102276.16;;;22.17;42.88
25238;BME280;13185;50.872;5.306;2022-07-06T09:53:06;102277.84;;;22.08;42.63
25238;BME280;13185;50.872;5.306;2022-07-06T09:55:32;102272.78;;;22.04;43.06
25238;BME280;13185;50.872;5.306;2022-07-06T09:57:58;102271.94;;;22.03;42.89
25238;BME280;13185;50.872;5.306;2022-07-06T10:00:25;102274.94;;;22.00;43.03
25238;BME280;13185;50.872;5.306;2022-07-06T10:02:51;102271.72;;;21.85;42.61
25238;BME280;13185;50.872;5.306;2022-07-06T10:05:18;102273.91;;;21.92;43.12
25238;BME280;13185;50.872;5.306;2022-07-06T10:07:45;102267.88;;;21.98;43.20
25238;BME280;13185;50.872;5.306;2022-07-06T10:10:16;102272.22;;;22.00;43.01
25238;BME280;13185;50.872;5.306;2022-07-06T10:12:44;102274.53;;;22.05;43.05
25238;BME280;13185;50.872;5.306;2022-07-06T10:15:10;102269.53;;;22.19;43.14
25238;BME280;13185;50.872;5.306;2022-07-06T10:17:38;102266.81;;;22.29;43.04
25238;BME280;13185;50.872;5.306;2022-07-06T10:20:06;102261.53;;;22.47;43.12
25238;BME280;13185;50.872;5.306;2022-07-06T10:22:34;102263.97;;;22.69;42.89
25238;BME280;13185;50.872;5.306;2022-07-06T10:25:01;102266.56;;;22.71;41.52
25238;BME280;13185;50.872;5.306;2022-07-06T10:27:28;102276.06;;;22.67;41.46
25238;BME280;13185;50.872;5.306;2022-07-06T10:29:54;102260.53;;;22.58;41.80
25238;BME280;13185;50.872;5.306;2022-07-06T10:32:21;102275.88;;;22.30;42.55
25238;BME280;13185;50.872;5.306;2022-07-06T10:34:48;102277.34;;;22.34;42.22
25238;BME280;13185;50.872;5.306;2022-07-06T10:37:25;102263.97;;;22.40;41.75
25238;BME280;13185;50.872;5.306;2022-07-06T10:39:51;102272.75;;;22.54;42.52
25238;BME280;13185;50.872;5.306;2022-07-06T10:42:49;102277.50;;;22.61;42.13
25238;BME280;13185;50.872;5.306;2022-07-06T10:50:51;102279.78;;;22.37;41.94
25238;BME280;13185;50.872;5.306;2022-07-06T10:53:25;102274.59;;;22.24;42.77
25238;BME280;13185;50.872;5.306;2022-07-06T10:55:53;102269.81;;;22.16;43.16
25238;BME280;13185;50.872;5.306;2022-07-06T10:58:39;102274.72;;;22.13;43.06
25238;BME280;13185;50.872;5.306;2022-07-06T11:01:06;102275.16;;;22.18;42.89
25238;BME280;13185;50.872;5.306;2022-07-06T11:03:37;102278.34;;;22.23;42.74
25238;BME280;13185;50.872;5.306;2022-07-06T11:08:46;102263.94;;;22.11;43.51
25238;BME280;13185;50.872;5.306;2022-07-06T11:14:05;102259.50;;;22.20;43.03
25238;BME280;13185;50.872;5.306;2022-07-06T11:16:40;102257.22;;;22.35;42.53
25238;BME280;13185;50.872;5.306;2022-07-06T11:19:26;102249.59;;;22.58;43.25
25238;BME280;13185;50.872;5.306;2022-07-06T11:21:54;102261.41;;;22.87;43.57
25238;BME280;13185;50.872;5.306;2022-07-06T11:24:26;102259.06;;;23.02;43.09
25238;BME280;13185;50.872;5.306;2022-07-06T11:26:53;102265.38;;;23.12;42.88
25238;BME280;13185;50.872;5.306;2022-07-06T11:29:20;102253.56;;;23.21;42.13
25238;BME280;13185;50.872;5.306;2022-07-06T11:31:48;102254.50;;;23.40;41.54
25238;BME280;13185;50.872;5.306;2022-07-06T11:34:25;102253.97;;;23.36;41.75
25238;BME280;13185;50.872;5.306;2022-07-06T11:37:03;102256.97;;;23.33;42.04
25238;BME280;13185;50.872;5.306;2022-07-06T11:39:31;102249.94;;;23.30;41.66
25238;BME280;13185;50.872;5.306;2022-07-06T11:41:58;102252.38;;;23.33;41.30
25238;BME280;13185;50.872;5.306;2022-07-06T11:44:26;102246.03;;;23.33;41.40
25238;BME280;13185;50.872;5.306;2022-07-06T11:46:53;102234.72;;;23.09;41.58
25238;BME280;13185;50.872;5.306;2022-07-06T11:49:24;102232.56;;;23.02;41.77
25238;BME280;13185;50.872;5.306;2022-07-06T11:51:50;102229.56;;;23.06;42.01
25238;BME280;13185;50.872;5.306;2022-07-06T11:54:17;102235.44;;;23.11;42.29
25238;BME280;13185;50.872;5.306;2022-07-06T11:56:54;102235.59;;;23.09;43.82
25238;BME280;13185;50.872;5.306;2022-07-06T11:59:25;102240.34;;;23.07;43.49
25238;BME280;13185;50.872;5.306;2022-07-06T12:02:20;102248.28;;;23.00;43.99
25238;BME280;13185;50.872;5.306;2022-07-06T12:04:46;102236.75;;;23.16;42.79
25238;BME280;13185;50.872;5.306;2022-07-06T12:07:13;102241.59;;;23.22;42.44
25238;BME280;13185;50.872;5.306;2022-07-06T12:09:41;102233.66;;;23.29;42.26
25238;BME280;13185;50.872;5.306;2022-07-06T12:12:08;102231.63;;;23.31;42.86
25238;BME280;13185;50.872;5.306;2022-07-06T12:14:36;102220.03;;;23.56;42.69
25238;BME280;13185;50.872;5.306;2022-07-06T12:17:09;102226.28;;;23.39;42.19
25238;BME280;13185;50.872;5.306;2022-07-06T12:19:36;102217.06;;;23.40;42.30
25238;BME280;13185;50.872;5.306;2022-07-06T12:22:03;102224.53;;;23.48;41.88
25238;BME280;13185;50.872;5.306;2022-07-06T12:24:30;102224.22;;;23.51;41.87
25238;BME280;13185;50.872;5.306;2022-07-06T12:26:56;102203.69;;;23.65;41.75
25238;BME280;13185;50.872;5.306;2022-07-06T12:29:23;102203.81;;;23.73;41.44
25238;BME280;13185;50.872;5.306;2022-07-06T12:34:20;102190.84;;;23.93;41.18
25238;BME280;13185;50.872;5.306;2022-07-06T12:36:54;102196.91;;;24.14;40.34
25238;BME280;13185;50.872;5.306;2022-07-06T12:39:21;102193.03;;;24.34;40.32
25238;BME280;13185;50.872;5.306;2022-07-06T12:44:20;102189.78;;;24.57;40.35
25238;BME280;13185;50.872;5.306;2022-07-06T12:46:46;102185.16;;;24.57;40.30
25238;BME280;13185;50.872;5.306;2022-07-06T12:49:19;102190.97;;;24.54;39.64
25238;BME280;13185;50.872;5.306;2022-07-06T12:52:14;102196.13;;;24.22;40.17
25238;BME280;13185;50.872;5.306;2022-07-06T12:54:44;102185.47;;;24.01;40.48
25238;BME280;13185;50.872;5.306;2022-07-06T12:59:48;102184.13;;;24.05;41.13
25238;BME280;13185;50.872;5.306;2022-07-06T13:02:31;102182.75;;;24.36;40.05
25238;BME280;13185;50.872;5.306;2022-07-06T13:05:01;102192.16;;;24.52;39.56
25238;BME280;13185;50.872;5.306;2022-07-06T13:07:29;102197.06;;;24.48;39.30
25238;BME280;13185;50.872;5.306;2022-07-06T13:09:58;102198.19;;;24.37;40.36
25238;BME280;13185;50.872;5.306;2022-07-06T13:12:24;102185.81;;;24.33;40.14